AirNav   Pilot Hours Calculator
 
 622 users online  

KEZI Kewanee Municipal Airport
Kewanee, Illinois, USA

GOING TO KEWANEE?


FAA INFORMATION EFFECTIVE 22 APRIL 2021

Location

FAA Identifier: EZI
Lat/Long: 41-12-18.7000N 089-57-49.9000W
41-12.311667N 089-57.831667W
41.2051944,-89.9638611
(estimated)
Elevation: 858 ft. / 261.5 m (surveyed)
Variation: 02W (2015)
From city: 3 miles SW of KEWANEE, IL
Time zone: UTC -5 (UTC -6 during Standard Time)
Zip code: 61443

Airport Operations

Airport use: Open to the public
Control tower: no
ARTCC: CHICAGO CENTER
FSS: KANKAKEE FLIGHT SERVICE STATION
NOTAMs facility: IKK (NOTAM-D service available)
Attendance: MON-FRI 0800-1800, ALL SAT 0900-1700, ALL SUN 0900-1700
Pattern altitude: 1258 ft. MSL
TPA: 400 FT AGL ULTRALIGHT.
Wind indicator: lighted
Segmented circle: yes
Lights: MIRL RY 09/27 PRESET ON LOW INTST; TO INCR INTST & ACTVT MIRL RY 01/19 & TWY LGTS - CTAF.
Beacon: white-green (lighted land airport)
Operates sunset to sunrise.

Airport Communications

CTAF/UNICOM: 122.8
QUAD CITY APPROACH: 133.275
QUAD CITY DEPARTURE: 133.275
  • APCH/DEP SVC PRVDD BY CHICAGO ARTCC (ZAU) ON FREQS 118.75/377.05 (MOLINE RCAG) WHEN QUAD CITY APCH CLSD.

Nearby radio navigation aids

VOR radial/distance  VOR name  Freq  Var
BDFr279/17.2BRADFORD VORTAC114.7000E
GBGr050/26.7GALESBURG VOR/DME109.8003E
MZVr098/31.2MOLINE VOR/DME114.4005E
PIAr342/32.4PEORIA VORTAC115.2004E
CVAr138/38.2DAVENPORT VORTAC113.8004E

Airport Services

Fuel available: 100LL
Parking: hangars and tiedowns
Airframe service: MAJOR
Powerplant service: MAJOR
Bottled oxygen: NONE
Bulk oxygen: NONE

Runway Information

Runway 9/27

Dimensions: 4500 x 75 ft. / 1372 x 23 m
Surface: asphalt, in good condition
Weight bearing capacity: 
Single wheel: 20.0
Runway edge lights: medium intensity
RUNWAY 9  RUNWAY 27
Latitude: 41-12.245988N41-12.231790N
Longitude: 089-58.428632W089-57.447698W
Elevation: 853.8 ft.856.3 ft.
Traffic pattern: leftleft
Runway heading: 093 magnetic, 091 true273 magnetic, 271 true
Markings: nonprecision, in good conditionnonprecision, in good condition
Visual slope indicator: pulsating/steady burning VASI on left (3.50 degrees glide path)
RY 09 PVASI UNUSBL BYD 6 DEG LEFT AND RIGHT OF CNTRLN.
pulsating/steady burning VASI on left (3.00 degrees glide path)
RY 27 PVASI UNUSBL BYD 6 DEG LEFT AND RIGHT OF CNTRLN.
Runway end identifier lights: no
Touchdown point: yes, no lightsyes, no lights

Runway 1/19

Dimensions: 3200 x 60 ft. / 975 x 18 m
Surface: asphalt, in good condition
Weight bearing capacity: 
Single wheel: 20.0
Runway edge lights: medium intensity
RUNWAY 1  RUNWAY 19
Latitude: 41-12.156590N41-12.673108N
Longitude: 089-57.752145W089-57.614733W
Elevation: 855.1 ft.837.6 ft.
Traffic pattern: leftleft
Runway heading: 013 magnetic, 011 true193 magnetic, 191 true
Markings: nonprecision, in good conditionnonprecision, in good condition
Touchdown point: yes, no lightsyes, no lights

Airport Ownership and Management from official FAA records

Ownership: Publicly-owned
Owner: KEWANEE AIRPORT AUTHORITY
3769 MIDLAND RD
KEWANEE, IL 61443
Phone 309-853-8671
Manager: ROSS CARBIENER
3769 MIDLAND RD.
KEWANEE, IL 61443
Phone 309-853-8671

Airport Operational Statistics

Aircraft based on the field: 19
Single engine airplanes: 18
Multi engine airplanes: 1
    
Aircraft operations: avg 33/day *
67% local general aviation
33% transient general aviation
<1% military
* for 12-month period ending 31 March 2020

Additional Remarks

ULTRALIGHT ACTIVITY ON & INVOF ARPT.
HOSPITAL HELIPORT 1.2 NM NORTHEAST OF ARPT.
FOR CD CTC CHICAGO ARTCC AT 630-906-8921.
AUTOMATED WX ADZY AVBL ON CTAF - 4 MIC CLICKS TO ACTVT.

Instrument Procedures

NOTE: All procedures below are presented as PDF files. If you need a reader for these files, you should download the free Adobe Reader.

NOT FOR NAVIGATION. Please procure official charts for flight.
FAA instrument procedures published for use from 22 April 2021 at 0901Z to 20 May 2021 at 0900z.

 
IAPs - Instrument Approach Procedures
RNAV (GPS) RWY 01   download (215KB)
RNAV (GPS) RWY 09   download (248KB)
RNAV (GPS) RWY 19   download (210KB)
RNAV (GPS) RWY 27   download (244KB)
NOTE: Special Take-Off Minimums/Departure Procedures apply   download (201KB)

Other nearby airports with instrument procedures:

KGBG - Galesburg Municipal Airport (27 nm SW)
C75 - Marshall County Airport (28 nm SE)
KMLI - Quad City International Airport (29 nm NW)
3MY - Mount Hawley Auxiliary Airport (29 nm SE)
C66 - Monmouth Municipal Airport (34 nm SW)
 
Loc | Ops | Rwys | IFR | FBO | Links
Com | Nav | Svcs | Stats | Notes
Area around KEZI (Kewanee Municipal Airport)
 
Road maps at: MapQuest Bing Google
 
Aerial photo
WARNING: Photo may not be current or correct
Aerial photo of KEZI (Kewanee Municipal Airport)
Photo by Greg Neaveill
Photo taken 09-Nov-2016
looking southeast

Do you have a better or more recent aerial photo of Kewanee Municipal Airport that you would like to share? If so, please send us your photo.

 
Sectional chart

 
Airport distance calculator
Flying to Kewanee Municipal Airport? Find the distance to fly.

From to KEZI

Sunrise and sunset
Times for 14-May-2021
 Local
(UTC-5)
 Zulu
(UTC)
Morning civil twilight05:1210:12
Sunrise05:4310:43
Sunset20:0901:09
Evening civil twilight20:4001:40

Current date and time
Zulu (UTC)  14-May-2021 05:31:59
Local (UTC-5)  14-May-2021 00:31:59
 
METAR
KGBG 
27nm SW 
140515Z AUTO 00000KT 10SM CLR 05/01 A3032 RMK AO2 T00530013
KC75 
29nm SE 
140515Z AUTO 00000KT 10SM CLR 07/03 A3032 RMK AO2 T00650031
KMLI 
29nm NW 
140452Z 00000KT 10SM CLR 07/03 A3030 RMK AO2 SLP261 T00720028
KPIA 
35nm S 
140454Z 00000KT 10SM CLR 09/01 A3033 RMK AO2 SLP269 T00890006
KSQI 
35nm N 
140456Z 00000KT 10SM CLR 10/02 A3032 RMK AO2 SLP130 T01000017
KDVN 
37nm NW 
140452Z AUTO 00000KT 10SM CLR 11/00 A3032 RMK AO2 SLP266 T01060000
KVYS 
38nm E 
140515Z AUTO 20004KT 10SM CLR 13/02 A3032 RMK AO2 T01250020
KCWI 
40nm NW 
140456Z AUTO 00000KT 10SM CLR 11/00 A3031 RMK AO2 SLP268 T01110000
TAF
KMLI 
29nm NW 
131720Z 1318/1418 20004KT P6SM SCT100
KPIA 
35nm S 
131720Z 1318/1418 VRB03KT P6SM FEW070
NOTAMs
Click for the latest NOTAMs
NOTAMs are issued by the DoD/FAA and will open in a separate window not controlled by AirNav.

 

 
 

FBO, Fuel Providers, and Aircraft Ground Support

  
 Business Name 
 
 Contact 
 
 Services / Description 
 
Fuel Prices
 
Comments
  
Kewanee Airport Authority 309-853-8671
no information available

If you are affiliated with Kewanee Airport Authority and would like to show here your services, contact info, web link, logo, and more, click here
100LL
PS $3.65 
 Updated 11-May-2021
 
   write
PS=Pump service
Update Fuel Prices
 

Would you like to see your business listed on this page?

 If your business provides an interesting product or service to pilots, flight crews, aircraft, or users of the Kewanee Municipal Airport, you should consider listing it here.  To start the listing process, click on the button below
 
Add a business
 

Other Pages about Kewanee Municipal Airport

www.kewaneeairport.com
 
Update a link
 
Copyright © AirNav, LLC. All rights reserved. Privacy Policy  Contact